Lanes Prairie, Missouri
Current Conditions -  °F | °C
As of 11:53 AM on Friday 21 Nov 2014 (Local Time) from KVIH Reporting Station
Overcast Overcast  
Wind Chill: 35°   Ceiling: 2600
Heat Index: 42°   Visibility: 10mi
Dew Point: 23°   Wind: 13mph
Humidity: 47%   Direction: 140°SE
Pressure: 30.27"   Gusts: NA
Location:  38.2601°N, 91.7526°W
Report Text: KVIH 211753Z AUTO 14011KT 10SM OVC026 06/M05 A3027 RMK AO2 SLP257 T00561050 10056 21039 58013
Loading
Personal Weather Stations






























Interactive Weather Map New forecast layout! Learn more

10-Day Weather Forecast

Advertisements
Track Severe Weather on mobile